Terminal Aerodrome Forecast
Issued by NWS

Home | Current Version | Previous Version | Graphics & Text | Print | Product List | Glossary On
Versions: 1 2 3 4 5 6 7 8 9 10 11 12 13 14 15 16
000
FTUS42 KMHX 300527
TAFPGV
TAF
KPGV 300527Z 3006/3106 VRB02KT P6SM SCT250
     FM300800 00000KT 3SM BR SCT008
     FM301200 17006KT P6SM SCT050
     FM310200 20003KT P6SM BKN250
      AMD LTD TO CLD VIS AND WIND=

USA.gov is the U.S. government's official web portal to all federal, state and local government web resources and services.